createdAt,value
2018-01-24T00:01:02.363Z,100955.78
2018-01-24T00:03:30.801Z,100941.23
2018-01-24T00:05:59.184Z,100944.45
2018-01-24T00:08:27.632Z,100944.80
2018-01-24T00:10:56.016Z,100942.29
2018-01-24T00:13:24.461Z,100938.57
2018-01-24T00:15:53.659Z,100929.83
2018-01-24T00:18:22.036Z,100927.23
2018-01-24T00:20:51.486Z,100925.89
2018-01-24T00:23:19.906Z,100929.13
2018-01-24T00:25:48.268Z,100925.48
2018-01-24T00:28:16.739Z,100931.19
2018-01-24T00:30:45.196Z,100922.78
2018-01-24T00:33:13.647Z,100927.55
2018-01-24T00:35:42.780Z,100927.36
2018-01-24T00:38:11.204Z,100919.47
2018-01-24T00:40:39.685Z,100924.87
2018-01-24T00:43:08.291Z,100936.50
2018-01-24T00:45:37.428Z,100925.78
2018-01-24T00:48:05.783Z,100924.83
2018-01-24T00:53:09.696Z,100919.52
2018-01-24T00:55:38.930Z,100918.98
2018-01-24T00:58:07.363Z,100918.50
2018-01-24T01:00:35.796Z,100915.67
2018-01-24T01:03:04.259Z,100927.54
2018-01-24T01:05:32.626Z,100933.03
2018-01-24T01:08:01.738Z,100935.95
2018-01-24T01:10:30.116Z,100938.42
2018-01-24T01:12:58.469Z,100938.02
2018-01-24T01:15:27.584Z,100945.20
2018-01-24T01:17:56.236Z,100944.58
2018-01-24T01:20:25.365Z,100946.97
2018-01-24T01:22:54.489Z,100948.61
2018-01-24T01:25:22.947Z,100949.15
2018-01-24T01:27:51.307Z,100940.71
2018-01-24T01:30:20.508Z,100941.16
2018-01-24T01:32:48.944Z,100939.79
2018-01-24T01:35:17.387Z,100935.50
2018-01-24T01:37:45.752Z,100929.78
2018-01-24T01:40:14.879Z,100929.45
2018-01-24T01:42:43.242Z,100931.33
2018-01-24T01:45:11.596Z,100934.58
2018-01-24T01:47:40.773Z,100932.09
2018-01-24T01:50:09.132Z,100922.53
2018-01-24T01:52:37.506Z,100932.22
2018-01-24T01:55:05.931Z,100923.39
2018-01-24T01:57:35.132Z,100917.44
2018-01-24T02:00:04.292Z,100901.52
2018-01-24T02:02:32.686Z,100910.69
2018-01-24T02:05:01.103Z,100910.99
2018-01-24T02:07:29.624Z,100912.75
2018-01-24T02:09:58.045Z,100918.14
2018-01-24T02:12:26.489Z,100914.19
2018-01-24T02:14:55.103Z,100923.04
2018-01-24T02:17:24.234Z,100918.56
2018-01-24T02:19:52.644Z,100916.39
2018-01-24T02:22:21.041Z,100908.27
2018-01-24T02:24:49.463Z,100915.56
2018-01-24T02:27:17.897Z,100911.61
2018-01-24T02:29:46.274Z,100911.59
2018-01-24T02:32:14.644Z,100912.94
2018-01-24T02:34:43.855Z,100909.92
2018-01-24T02:37:12.391Z,100898.16
2018-01-24T02:39:40.760Z,100901.05
2018-01-24T02:42:09.220Z,100908.97
2018-01-24T02:44:37.564Z,100894.42
2018-01-24T02:47:05.975Z,100897.63
2018-01-24T02:49:35.133Z,100894.94
2018-01-24T02:52:04.319Z,100900.88
2018-01-24T02:54:32.741Z,100903.20
2018-01-24T02:57:01.154Z,100903.30
2018-01-24T02:59:29.579Z,100900.92
2018-01-24T03:01:58.023Z,100901.95
2018-01-24T03:04:26.447Z,100896.34
2018-01-24T03:06:54.896Z,100891.34
2018-01-24T03:09:23.261Z,100902.45
2018-01-24T03:11:51.608Z,100905.14
2018-01-24T03:14:20.749Z,100903.19
2018-01-24T03:16:49.124Z,100901.73
2018-01-24T03:19:17.476Z,100905.90
2018-01-24T03:21:45.894Z,100898.89
2018-01-24T03:24:14.273Z,100905.45
2018-01-24T03:26:42.624Z,100908.33
2018-01-24T03:29:10.967Z,100910.59
2018-01-24T03:31:39.344Z,100911.33
2018-01-24T03:34:07.698Z,100912.14
2018-01-24T03:36:36.117Z,100910.70
2018-01-24T03:39:05.312Z,100917.89
2018-01-24T03:41:34.504Z,100917.14
2018-01-24T03:44:03.726Z,100913.19
2018-01-24T03:46:32.195Z,100917.33
2018-01-24T03:49:01.441Z,100915.53
2018-01-24T03:51:29.780Z,100923.23
2018-01-24T03:53:58.983Z,100932.27
2018-01-24T03:56:27.341Z,100931.95
2018-01-24T03:58:56.486Z,100925.09
2018-01-24T04:01:24.939Z,100920.17
2018-01-24T04:03:53.300Z,100913.78
2018-01-24T04:06:22.481Z,100916.98
2018-01-24T04:08:50.888Z,100907.70
2018-01-24T04:11:20.072Z,100912.27
2018-01-24T04:13:49.278Z,100908.20
2018-01-24T04:16:18.463Z,100909.20
2018-01-24T04:18:47.651Z,100903.90
2018-01-24T04:21:16.052Z,100900.56
2018-01-24T04:23:44.487Z,100894.64
2018-01-24T04:26:12.916Z,100883.38
2018-01-24T04:28:41.346Z,100883.81
2018-01-24T04:31:09.787Z,100885.38
2018-01-24T04:33:38.240Z,100873.94
2018-01-24T04:36:07.436Z,100882.59
2018-01-24T04:38:36.596Z,100881.37
2018-01-24T04:41:04.984Z,100887.09
2018-01-24T04:43:33.338Z,100883.55
2018-01-24T04:46:01.751Z,100867.03
2018-01-24T04:48:30.128Z,100872.82
2018-01-24T04:50:58.474Z,100882.73
2018-01-24T04:53:26.836Z,100877.33
2018-01-24T04:55:55.196Z,100879.49
2018-01-24T04:58:24.332Z,100876.17
2018-01-24T05:00:52.747Z,100880.53
2018-01-24T05:03:21.171Z,100884.95
2018-01-24T05:05:49.571Z,100897.59
2018-01-24T05:08:18.007Z,100895.17
2018-01-24T05:10:47.199Z,100901.86
2018-01-24T05:13:16.361Z,100900.29
2018-01-24T05:15:44.712Z,100895.90
2018-01-24T05:18:13.065Z,100904.35
2018-01-24T05:20:43.307Z,100896.83
2018-01-24T05:23:11.734Z,100894.12
2018-01-24T05:25:40.112Z,100895.32
2018-01-24T05:28:08.574Z,100899.27
2018-01-24T05:30:37.003Z,100907.80
2018-01-24T05:33:06.215Z,100898.34
2018-01-24T05:35:34.579Z,100908.97
2018-01-24T05:38:03.758Z,100915.62
2018-01-24T05:40:32.178Z,100910.87
2018-01-24T05:43:00.623Z,100912.73
2018-01-24T05:45:29.752Z,100913.10
2018-01-24T05:47:58.195Z,100906.70
2018-01-24T05:50:26.576Z,100914.36
2018-01-24T05:52:54.940Z,100924.17
2018-01-24T05:55:23.457Z,100920.38
2018-01-24T05:57:52.635Z,100923.43
2018-01-24T06:00:21.827Z,100927.08
2018-01-24T06:02:50.204Z,100930.28
2018-01-24T06:05:18.795Z,100934.95
2018-01-24T06:07:47.227Z,100938.42
2018-01-24T06:10:15.663Z,100945.79
2018-01-24T06:12:44.869Z,100942.75
2018-01-24T06:15:13.996Z,100953.80
2018-01-24T06:17:42.426Z,100951.13
2018-01-24T06:20:10.887Z,100950.62
2018-01-24T06:22:39.260Z,100948.30
2018-01-24T06:25:07.604Z,100956.81
2018-01-24T06:27:35.968Z,100952.00
2018-01-24T06:30:05.143Z,100949.13
2018-01-24T06:32:33.670Z,100954.66
2018-01-24T06:35:02.020Z,100963.42
2018-01-24T06:37:31.203Z,100961.12
2018-01-24T06:39:59.643Z,100958.91
2018-01-24T06:42:28.017Z,100958.59
2018-01-24T06:44:56.455Z,100963.19
2018-01-24T06:47:25.591Z,100968.08
2018-01-24T06:49:54.011Z,100980.59
2018-01-24T06:52:22.385Z,100982.27
2018-01-24T06:54:50.827Z,100975.81
2018-01-24T06:57:20.199Z,100973.41
2018-01-24T06:59:49.329Z,100965.70
2018-01-24T07:02:17.736Z,100972.48
2018-01-24T07:04:46.130Z,100970.42
2018-01-24T07:07:14.517Z,100969.33
2018-01-24T07:09:43.648Z,100965.03
2018-01-24T07:12:29.668Z,100969.48
2018-01-24T07:14:58.012Z,100956.42
2018-01-24T07:17:26.364Z,100949.48
2018-01-24T07:19:54.783Z,100957.78
2018-01-24T07:22:23.208Z,100957.45
2018-01-24T07:24:51.573Z,100952.88
2018-01-24T07:27:19.921Z,100949.90
2018-01-24T07:29:48.284Z,100958.52
2018-01-24T07:32:16.707Z,100957.54
2018-01-24T07:34:45.085Z,100949.37
2018-01-24T07:37:13.471Z,100953.06
2018-01-24T07:39:41.897Z,100947.95
2018-01-24T07:42:10.316Z,100947.98
2018-01-24T07:44:38.703Z,100952.13
2018-01-24T07:47:07.138Z,100956.67
2018-01-24T07:49:35.560Z,100953.14
2018-01-24T07:52:04.178Z,100952.37
2018-01-24T07:54:33.371Z,100958.06
2018-01-24T07:57:01.805Z,100966.61
2018-01-24T07:59:30.281Z,100972.99
2018-01-24T08:01:58.647Z,100965.87
2018-01-24T08:04:26.996Z,100956.87
2018-01-24T08:06:55.352Z,100952.53
2018-01-24T08:09:23.729Z,100948.80
2018-01-24T08:11:52.155Z,100944.30
2018-01-24T08:14:20.601Z,100944.27
2018-01-24T08:16:49.776Z,100942.25
2018-01-24T08:19:18.191Z,100941.52
2018-01-24T08:21:47.378Z,100943.42
2018-01-24T08:24:16.553Z,100946.97
2018-01-24T08:26:44.901Z,100940.83
2018-01-24T08:29:13.244Z,100940.70
2018-01-24T08:31:42.635Z,100953.05
2018-01-24T08:34:11.062Z,100958.11
2018-01-24T08:36:39.483Z,100946.53
2018-01-24T08:39:07.927Z,100938.73
2018-01-24T08:41:36.282Z,100942.73
2018-01-24T08:44:05.416Z,100943.23
2018-01-24T08:46:33.765Z,100940.05
2018-01-24T08:49:02.231Z,100943.24
2018-01-24T08:51:31.796Z,100939.38
2018-01-24T08:54:00.227Z,100946.22
2018-01-24T08:56:28.584Z,100942.76
2018-01-24T08:58:57.021Z,100892.80
2018-01-24T09:01:25.455Z,100932.95
2018-01-24T09:03:54.590Z,100931.62
2018-01-24T09:06:23.033Z,100942.36
2018-01-24T09:08:52.164Z,100934.05
2018-01-24T09:11:20.527Z,100940.74
2018-01-24T09:13:48.876Z,100947.65
2018-01-24T09:16:18.067Z,100945.06
2018-01-24T09:18:47.252Z,100957.05
2018-01-24T09:21:15.696Z,100949.80
2018-01-24T09:23:44.056Z,100949.77
2018-01-24T09:26:12.408Z,100946.39
2018-01-24T09:28:40.800Z,100947.17
2018-01-24T09:31:09.983Z,100943.50
2018-01-24T09:33:39.116Z,100937.98
2018-01-24T09:36:07.496Z,100946.94
2018-01-24T09:38:35.874Z,100947.39
2018-01-24T09:41:04.241Z,100940.77
2018-01-24T09:43:33.392Z,100949.28
2018-01-24T09:46:01.840Z,100952.77
2018-01-24T09:48:30.221Z,100949.42
2018-01-24T09:50:58.687Z,100954.45
2018-01-24T09:53:27.134Z,100959.36
2018-01-24T09:55:56.274Z,100951.05
2018-01-24T09:58:24.847Z,100954.80
2018-01-24T10:00:53.216Z,100956.73
2018-01-24T10:03:21.660Z,100945.91
2018-01-24T10:05:50.107Z,100940.94
2018-01-24T10:08:18.534Z,100941.19
2018-01-24T10:10:47.759Z,100933.71
2018-01-24T10:13:16.171Z,100934.50
2018-01-24T10:15:44.583Z,100937.98
2018-01-24T10:18:13.799Z,100930.70
2018-01-24T10:20:42.934Z,100931.52
2018-01-24T10:23:11.326Z,100933.61
2018-01-24T10:25:39.681Z,100932.48
2018-01-24T10:28:08.034Z,100944.98
2018-01-24T10:30:37.194Z,100934.66
2018-01-24T10:33:05.545Z,100930.52
2018-01-24T10:35:33.962Z,100922.81
2018-01-24T10:38:02.337Z,100922.69
2018-01-24T10:40:30.709Z,100920.03
2018-01-24T10:42:59.135Z,100917.09
2018-01-24T10:45:27.546Z,100910.20
2018-01-24T10:47:55.964Z,100905.91
2018-01-24T10:50:24.328Z,100907.67
2018-01-24T10:52:52.713Z,100899.29
2018-01-24T10:55:21.100Z,100902.80
2018-01-24T10:57:49.481Z,100893.51
2018-01-24T11:00:17.903Z,100898.86
2018-01-24T11:02:46.361Z,100883.06
2018-01-24T11:05:14.795Z,100875.71
2018-01-24T11:07:43.223Z,100875.07
2018-01-24T11:10:11.598Z,100868.86
2018-01-24T11:12:40.787Z,100859.23
2018-01-24T11:15:09.953Z,100856.30
2018-01-24T11:17:38.385Z,100852.59
2018-01-24T11:20:06.819Z,100850.13
2018-01-24T11:22:35.283Z,100854.37
2018-01-24T11:25:03.651Z,100847.88
2018-01-24T11:27:32.020Z,100847.85
2018-01-24T11:30:00.413Z,100845.55
2018-01-24T11:32:28.835Z,100850.91
2018-01-24T11:34:58.051Z,100844.77
2018-01-24T11:37:26.520Z,100840.14
2018-01-24T11:39:55.737Z,100838.61
2018-01-24T11:42:24.099Z,100837.13
2018-01-24T11:44:52.472Z,100821.20
2018-01-24T11:47:21.668Z,100828.91
2018-01-24T11:49:50.903Z,100823.06
2018-01-24T11:52:19.335Z,100820.83
2018-01-24T11:54:47.704Z,100812.19
2018-01-24T11:57:16.078Z,100811.31
2018-01-24T11:59:45.263Z,100801.46
2018-01-24T12:02:13.630Z,100800.34
2018-01-24T12:04:42.025Z,100797.13
2018-01-24T12:07:10.397Z,100789.43
2018-01-24T12:09:38.756Z,100776.81
2018-01-24T12:12:07.153Z,100781.92
2018-01-24T12:14:35.576Z,100779.59
2018-01-24T12:17:04.780Z,100774.52
2018-01-24T12:19:33.956Z,100766.46
2018-01-24T12:22:02.413Z,100764.81
2018-01-24T12:24:30.860Z,100758.61
2018-01-24T12:26:59.291Z,100758.92
2018-01-24T12:29:28.709Z,100759.09
2018-01-24T12:31:57.081Z,100762.88
2018-01-24T12:34:25.510Z,100758.68
2018-01-24T12:36:53.971Z,100755.09
2018-01-24T12:39:22.340Z,100744.86
2018-01-24T12:41:51.551Z,100753.23
2018-01-24T12:44:19.925Z,100756.92
2018-01-24T12:46:49.042Z,100741.75
2018-01-24T12:49:17.419Z,100753.37
2018-01-24T12:51:45.869Z,100740.75
2018-01-24T12:54:15.101Z,100745.20
2018-01-24T12:56:43.536Z,100747.47
2018-01-24T12:59:11.909Z,100741.84
2018-01-24T13:01:40.275Z,100731.51
2018-01-24T13:04:08.641Z,100735.80
2018-01-24T13:06:37.089Z,100726.47
2018-01-24T13:09:05.535Z,100722.84
2018-01-24T13:11:33.968Z,100721.25
2018-01-24T13:14:02.351Z,100700.57
2018-01-24T13:16:30.732Z,100701.52
2018-01-24T13:18:59.168Z,100701.61
2018-01-24T13:21:27.615Z,100694.24
2018-01-24T13:23:56.191Z,100696.92
2018-01-24T13:26:24.548Z,100693.88
2018-01-24T13:28:52.925Z,100688.39
2018-01-24T13:31:21.310Z,100675.48
2018-01-24T13:33:49.680Z,100664.57
2018-01-24T13:36:18.115Z,100661.61
2018-01-24T13:38:47.414Z,100660.12
2018-01-24T13:41:15.837Z,100656.16
2018-01-24T13:43:44.267Z,100658.63
2018-01-24T13:46:12.708Z,100655.65
2018-01-24T13:48:41.166Z,100644.61
2018-01-24T13:51:09.544Z,100640.73
2018-01-24T13:53:37.920Z,100637.09
2018-01-24T13:56:07.060Z,100630.13
2018-01-24T13:58:35.421Z,100625.09
2018-01-24T14:01:03.776Z,100620.18
2018-01-24T14:03:32.907Z,100616.53
2018-01-24T14:06:01.327Z,100613.72
2018-01-24T14:08:30.531Z,100618.55
2018-01-24T14:10:59.956Z,100623.20
2018-01-24T14:13:28.305Z,100611.65
2018-01-24T14:15:56.672Z,100624.41
2018-01-24T14:18:25.058Z,100619.91
2018-01-24T14:20:53.473Z,100620.06
2018-01-24T14:23:21.903Z,100618.48
2018-01-24T14:25:50.407Z,100605.14
2018-01-24T14:28:19.543Z,100592.64
2018-01-24T14:30:47.971Z,100581.42
2018-01-24T14:33:16.339Z,100579.31
2018-01-24T14:35:44.808Z,100590.53
2018-01-24T14:38:13.244Z,100585.11
2018-01-24T14:40:41.679Z,100583.05
2018-01-24T14:43:10.018Z,100575.04
2018-01-24T14:45:38.392Z,100574.96
2018-01-24T14:48:06.845Z,100578.39
2018-01-24T14:50:36.028Z,100569.47
2018-01-24T14:53:04.485Z,100566.09
2018-01-24T14:55:32.948Z,100564.75
2018-01-24T14:58:01.336Z,100557.41
2018-01-24T15:00:29.769Z,100562.36
2018-01-24T15:02:58.987Z,100545.05
2018-01-24T15:05:27.357Z,100532.89
2018-01-24T15:07:55.718Z,100538.89
2018-01-24T15:10:24.922Z,100531.53
2018-01-24T15:12:53.342Z,100528.51
2018-01-24T15:15:21.838Z,100527.88
2018-01-24T15:17:50.271Z,100526.28
2018-01-24T15:20:18.703Z,100529.60
2018-01-24T15:22:47.163Z,100527.55
2018-01-24T15:25:15.540Z,100527.08
2018-01-24T15:27:43.894Z,100530.34
2018-01-24T15:30:12.340Z,100528.72
2018-01-24T15:32:40.800Z,100531.91
2018-01-24T15:35:09.193Z,100528.03
2018-01-24T15:37:37.560Z,100525.11
2018-01-24T15:40:05.952Z,100517.25
2018-01-24T15:42:34.309Z,100514.19
2018-01-24T15:45:02.732Z,100512.38
2018-01-24T15:47:31.309Z,100504.20
2018-01-24T15:49:59.772Z,100504.66
2018-01-24T15:52:28.149Z,100499.80
2018-01-24T15:54:56.591Z,100507.51
2018-01-24T15:57:25.044Z,100499.92
2018-01-24T15:59:53.511Z,100493.09
2018-01-24T16:02:22.731Z,100483.34
2018-01-24T16:04:51.116Z,100484.26
2018-01-24T16:07:19.570Z,100484.72
2018-01-24T16:09:48.819Z,100488.59
2018-01-24T16:12:17.257Z,100485.11
2018-01-24T16:14:46.467Z,100480.92
2018-01-24T16:17:14.836Z,100477.73
2018-01-24T16:19:44.027Z,100480.92
2018-01-24T16:22:13.177Z,100478.70
2018-01-24T16:24:41.602Z,100475.00
2018-01-24T16:27:10.743Z,100469.50
2018-01-24T16:29:39.175Z,100460.94
2018-01-24T16:32:08.374Z,100457.75
2018-01-24T16:34:37.655Z,100457.57
2018-01-24T16:37:06.098Z,100458.63
2018-01-24T16:39:34.523Z,100456.91
2018-01-24T16:42:02.955Z,100455.13
2018-01-24T16:44:31.312Z,100458.53
2018-01-24T16:47:00.463Z,100453.91
2018-01-24T16:49:28.818Z,100455.58
2018-01-24T16:51:57.239Z,100452.23
2018-01-24T16:54:26.381Z,100449.61
2018-01-24T16:56:54.799Z,100446.25
2018-01-24T16:59:23.270Z,100447.44
2018-01-24T17:01:51.705Z,100449.56
2018-01-24T17:04:20.076Z,100455.88
2018-01-24T17:06:49.249Z,100447.89
2018-01-24T17:09:17.623Z,100453.02
2018-01-24T17:11:45.980Z,100452.38
2018-01-24T17:14:14.427Z,100452.36
2018-01-24T17:16:42.860Z,100442.95
2018-01-24T17:19:11.238Z,100450.73
2018-01-24T17:21:39.690Z,100448.78
2018-01-24T17:24:08.159Z,100452.81
2018-01-24T17:26:36.540Z,100451.27
2018-01-24T17:29:05.296Z,100457.30
2018-01-24T17:31:34.441Z,100451.27
2018-01-24T17:34:02.832Z,100449.95
2018-01-24T17:36:31.205Z,100445.14
2018-01-24T17:38:59.630Z,100442.69
2018-01-24T17:41:28.012Z,100437.66
2018-01-24T17:43:57.158Z,100434.81
2018-01-24T17:46:25.529Z,100434.55
2018-01-24T17:48:54.013Z,100427.69
2018-01-24T17:51:22.391Z,100429.92
2018-01-24T17:53:50.753Z,100430.58
2018-01-24T17:56:19.173Z,100423.70
2018-01-24T17:58:47.611Z,100420.95
2018-01-24T18:01:16.076Z,100434.44
2018-01-24T18:03:44.671Z,100430.19
2018-01-24T18:06:13.048Z,100427.22
2018-01-24T18:08:41.421Z,100431.13
2018-01-24T18:11:09.995Z,100444.90
2018-01-24T18:13:38.376Z,100440.00
2018-01-24T18:16:06.830Z,100450.78
2018-01-24T18:18:36.126Z,100448.88
2018-01-24T18:21:04.521Z,100449.63
2018-01-24T18:23:33.755Z,100447.27
2018-01-24T18:26:02.184Z,100458.24
2018-01-24T18:28:30.650Z,100454.09
2018-01-24T18:30:59.144Z,100444.67
2018-01-24T18:33:27.632Z,100446.36
2018-01-24T18:35:56.030Z,100440.84
2018-01-24T18:38:25.150Z,100440.73
2018-01-24T18:40:53.692Z,100436.76
2018-01-24T18:43:22.150Z,100437.30
2018-01-24T18:45:51.303Z,100410.92
2018-01-24T18:48:19.702Z,100408.25
2018-01-24T18:50:48.160Z,100414.81
2018-01-24T18:53:16.635Z,100411.59
2018-01-24T18:55:45.071Z,100405.42
2018-01-24T18:58:14.244Z,100406.49
2018-01-24T19:00:42.629Z,100408.80
2018-01-24T19:03:11.180Z,100406.77
2018-01-24T19:05:39.557Z,100398.06
2018-01-24T19:08:07.931Z,100394.80
2018-01-24T19:10:36.677Z,100394.30
2018-01-24T19:13:05.141Z,100394.62
2018-01-24T19:15:33.528Z,100381.06
2018-01-24T19:18:01.972Z,100384.73
2018-01-24T19:20:30.419Z,100387.47
2018-01-24T19:22:58.862Z,100391.05
2018-01-24T19:25:27.324Z,100400.80
2018-01-24T19:27:55.759Z,100396.99
2018-01-24T19:30:25.168Z,100398.81
2018-01-24T19:32:53.607Z,100392.81
2018-01-24T19:35:22.063Z,100384.23
2018-01-24T19:37:50.552Z,100386.66
2018-01-24T19:40:19.048Z,100386.28
2018-01-24T19:42:47.487Z,100392.81
2018-01-24T19:45:15.944Z,100392.50
2018-01-24T19:47:44.375Z,100386.56
2018-01-24T19:50:12.839Z,100386.66
2018-01-24T19:52:41.250Z,100378.25
2018-01-24T19:55:09.936Z,100380.94
2018-01-24T19:57:38.396Z,100381.02
2018-01-24T20:00:06.857Z,100384.69
2018-01-24T20:02:35.370Z,100386.14
2018-01-24T20:05:03.758Z,100387.17
2018-01-24T20:07:32.117Z,100377.97
2018-01-24T20:10:00.555Z,100375.22
2018-01-24T20:12:29.805Z,100376.98
2018-01-24T20:14:58.254Z,100368.92
2018-01-24T20:17:26.683Z,100367.83
2018-01-24T20:19:55.066Z,100362.39
2018-01-24T20:22:23.542Z,100359.89
2018-01-24T20:24:52.021Z,100352.96
2018-01-24T20:27:21.173Z,100352.59
2018-01-24T20:29:50.332Z,100352.87
2018-01-24T20:32:18.754Z,100349.42
2018-01-24T20:34:48.066Z,100360.30
2018-01-24T20:37:17.165Z,100354.73
2018-01-24T20:39:45.589Z,100354.86
2018-01-24T20:42:14.061Z,100349.24
2018-01-24T20:44:42.437Z,100352.14
2018-01-24T20:47:10.816Z,100354.19
2018-01-24T20:49:39.188Z,100353.14
2018-01-24T20:52:07.596Z,100349.68
2018-01-24T20:54:36.019Z,100344.55
2018-01-24T20:57:04.452Z,100347.27
2018-01-24T20:59:33.039Z,100341.52
2018-01-24T21:02:01.404Z,100340.62
2018-01-24T21:04:29.840Z,100329.70
2018-01-24T21:06:58.233Z,100333.82
2018-01-24T21:09:26.710Z,100329.70
2018-01-24T21:11:55.121Z,100326.16
2018-01-24T21:14:23.539Z,100323.16
2018-01-24T21:16:52.676Z,100323.39
2018-01-24T21:19:21.046Z,100320.42
2018-01-24T21:21:49.467Z,100316.52
2018-01-24T21:24:17.853Z,100308.69
2018-01-24T21:26:46.277Z,100303.86
2018-01-24T21:29:41.439Z,100312.24
2018-01-24T21:32:28.357Z,100304.58
2018-01-24T21:35:14.329Z,100304.81
2018-01-24T21:37:42.769Z,100303.83
2018-01-24T21:40:11.230Z,100302.25
2018-01-24T21:42:39.678Z,100298.63
2018-01-24T21:45:08.121Z,100295.50
2018-01-24T21:47:36.695Z,100295.54
2018-01-24T21:50:05.143Z,100279.67
2018-01-24T21:52:34.370Z,100280.77
2018-01-24T21:55:02.784Z,100286.70
2018-01-24T21:57:31.210Z,100278.00
2018-01-24T21:59:59.667Z,100285.45
2018-01-24T22:02:28.902Z,100286.53
2018-01-24T22:04:57.343Z,100290.48
2018-01-24T22:07:25.717Z,100298.19
2018-01-24T22:09:54.150Z,100300.22
2018-01-24T22:12:22.531Z,100290.52
2018-01-24T22:14:50.975Z,100298.14
2018-01-24T22:17:20.117Z,100295.64
2018-01-24T22:19:48.576Z,100297.95
2018-01-24T22:22:17.051Z,100294.92
2018-01-24T22:24:45.484Z,100298.90
2018-01-24T22:27:13.917Z,100290.02
2018-01-24T22:29:42.376Z,100267.67
2018-01-24T22:32:11.620Z,100252.55
2018-01-24T22:34:39.985Z,100249.48
2018-01-24T22:37:08.340Z,100242.48
2018-01-24T22:39:38.140Z,100243.23
2018-01-24T22:42:06.583Z,100234.30
2018-01-24T22:44:34.997Z,100250.76
2018-01-24T22:47:03.679Z,100256.27
2018-01-24T22:49:32.044Z,100249.66
2018-01-24T22:52:00.413Z,100249.97
2018-01-24T22:54:28.784Z,100251.81
2018-01-24T22:56:57.916Z,100252.63
2018-01-24T22:59:26.285Z,100257.37
2018-01-24T23:01:54.702Z,100257.96
2018-01-24T23:04:23.092Z,100261.03
2018-01-24T23:06:51.460Z,100257.34
2018-01-24T23:09:20.613Z,100253.77
2018-01-24T23:11:49.035Z,100249.56
2018-01-24T23:14:17.480Z,100256.14
2018-01-24T23:16:45.888Z,100247.69
2018-01-24T23:19:15.021Z,100256.32
2018-01-24T23:21:43.455Z,100252.91
2018-01-24T23:24:12.658Z,100258.89
2018-01-24T23:26:41.851Z,100260.37
2018-01-24T23:29:11.077Z,100267.98
2018-01-24T23:31:39.511Z,100259.83
2018-01-24T23:34:07.912Z,100260.86
2018-01-24T23:36:37.050Z,100258.02
2018-01-24T23:39:05.413Z,100265.59
2018-01-24T23:41:33.852Z,100270.08
2018-01-24T23:44:02.283Z,100274.36
2018-01-24T23:46:30.726Z,100261.16
2018-01-24T23:48:59.876Z,100250.05
2018-01-24T23:51:28.233Z,100260.16
2018-01-24T23:53:56.589Z,100244.55
2018-01-24T23:56:25.787Z,100222.02
2018-01-24T23:58:54.169Z,100223.98
